Time;durP1;ratioP1;P1;durP2;ratioP2;P2;SDS_P1;SDS_P2;PMS_P1;PMS_P2;Temp;Humidity;BMP_temperature;BMP_pressure;BME280_temperature;BME280_humidity;BME280_pressure;Samples;Min_cycle;Max_cycle;Signal;HPM_P1;HPM_P2
2023/03/20 00:02:17;;;;;;;2.20;2.10;;;;;;;9.10;100.00;100479.69;4913556;29;20457;-51
2023/03/20 00:04:43;;;;;;;2.37;1.13;;;;;;;9.10;100.00;100480.56;4913546;29;20481;-52
2023/03/20 00:07:11;;;;;;;2.30;1.13;;;;;;;9.15;100.00;100486.66;4901011;28;20480;-52
2023/03/20 00:09:38;;;;;;;1.27;1.20;;;;;;;9.08;100.00;100482.38;4903758;29;20478;-53
2023/03/20 00:12:05;;;;;;;1.50;1.40;;;;;;;9.18;100.00;100473.34;4906651;28;20461;-52
2023/03/20 00:14:33;;;;;;;1.50;1.40;;;;;;;9.24;100.00;100469.69;4913558;29;20842;-52
2023/03/20 00:16:59;;;;;;;1.10;0.70;;;;;;;9.20;100.00;100481.28;4913290;28;20475;-53
2023/03/20 00:19:30;;;;;;;0.83;0.83;;;;;;;9.16;100.00;100471.59;4913320;29;20470;-52
2023/03/20 00:21:57;;;;;;;1.67;0.90;;;;;;;9.31;100.00;100476.59;4905168;29;20527;-52
2023/03/20 00:24:24;;;;;;;1.33;0.60;;;;;;;9.39;100.00;100476.47;4913171;29;20457;-52
2023/03/20 00:26:52;;;;;;;0.90;0.90;;;;;;;9.36;100.00;100485.34;4913502;28;20896;-53
2023/03/20 00:29:24;;;;;;;2.00;1.90;;;;;;;9.41;100.00;100482.59;4911926;29;20477;-52
2023/03/20 00:31:52;;;;;;;1.43;1.33;;;;;;;9.55;100.00;100484.97;4913333;29;20463;-52
2023/03/20 00:34:22;;;;;;;1.00;0.90;;;;;;;9.46;100.00;100480.75;4912958;29;20492;-52
2023/03/20 00:36:50;;;;;;;2.77;2.60;;;;;;;9.42;100.00;100485.22;4906552;29;20483;-52
2023/03/20 00:39:17;;;;;;;1.30;0.90;;;;;;;9.38;100.00;100493.28;4912700;29;21009;-52
2023/03/20 00:41:54;;;;;;;1.30;1.20;;;;;;;9.20;100.00;100482.16;4913254;28;20457;-53
2023/03/20 00:44:33;;;;;;;1.30;1.20;;;;;;;9.45;100.00;100478.97;4901844;29;20457;-53
2023/03/20 00:47:03;;;;;;;1.80;0.80;;;;;;;9.50;100.00;100483.28;4912962;29;20460;-52
2023/03/20 00:49:32;;;;;;;1.43;1.33;;;;;;;9.52;100.00;100487.69;4912734;29;20481;-52
2023/03/20 00:52:01;;;;;;;1.17;1.07;;;;;;;9.54;100.00;100491.19;4912056;29;20464;-52
2023/03/20 00:54:27;;;;;;;0.97;0.87;;;;;;;9.62;100.00;100487.47;4913750;28;20536;-52
2023/03/20 00:57:02;;;;;;;1.67;1.53;;;;;;;9.68;100.00;100492.63;4909456;28;20460;-52
2023/03/20 00:59:35;;;;;;;1.80;1.40;;;;;;;9.66;100.00;100497.09;4893237;29;20515;-53
2023/03/20 01:02:02;;;;;;;2.27;1.27;;;;;;;9.62;100.00;100494.56;4915909;29;20457;-51
2023/03/20 01:04:41;;;;;;;0.43;0.40;;;;;;;9.58;100.00;100500.81;4914267;28;20465;-52
2023/03/20 01:07:12;;;;;;;2.07;1.30;;;;;;;9.63;100.00;100505.13;4903550;28;20449;-52
2023/03/20 01:09:39;;;;;;;1.13;1.03;;;;;;;9.56;100.00;100502.63;4916079;29;20522;-51
2023/03/20 01:12:06;;;;;;;1.10;1.10;;;;;;;9.55;100.00;100499.09;4910630;29;20465;-52
2023/03/20 01:14:33;;;;;;;1.20;1.10;;;;;;;9.49;100.00;100499.25;4914695;28;20464;-53
2023/03/20 01:17:00;;;;;;;1.30;1.20;;;;;;;9.46;100.00;100507.28;4915989;29;20457;-51
2023/03/20 01:19:26;;;;;;;1.37;1.27;;;;;;;9.56;100.00;100505.28;4910028;28;20571;-53
2023/03/20 01:21:56;;;;;;;1.10;1.00;;;;;;;9.64;100.00;100500.69;4915880;28;20467;-53
2023/03/20 01:24:22;;;;;;;0.83;0.80;;;;;;;9.64;100.00;100506.00;4915941;29;20457;-53
2023/03/20 01:26:50;;;;;;;1.10;1.10;;;;;;;9.66;100.00;100507.72;4910775;28;20812;-51
2023/03/20 01:29:20;;;;;;;1.43;1.07;;;;;;;9.61;100.00;100511.38;4908628;29;20496;-52
2023/03/20 01:31:48;;;;;;;1.20;0.90;;;;;;;9.56;100.00;100514.13;4908248;29;20515;-52
2023/03/20 01:34:18;;;;;;;0.70;0.70;;;;;;;9.46;100.00;100523.19;4915781;29;20453;-53
2023/03/20 01:36:50;;;;;;;1.20;1.10;;;;;;;9.40;100.00;100523.31;4915659;29;20457;-52
2023/03/20 01:39:17;;;;;;;1.23;1.23;;;;;;;9.44;100.00;100523.19;4915301;29;20583;-53
2023/03/20 01:41:45;;;;;;;1.43;1.33;;;;;;;9.47;100.00;100524.94;4915360;28;21009;-51
2023/03/20 01:44:21;;;;;;;1.17;0.93;;;;;;;9.41;100.00;100519.75;4915592;29;20467;-53
2023/03/20 01:46:50;;;;;;;1.60;1.50;;;;;;;9.42;100.00;100516.19;4909358;29;20886;-53
2023/03/20 01:49:20;;;;;;;6.43;2.57;;;;;;;9.49;100.00;100515.16;4915116;29;21012;-52
2023/03/20 01:51:48;;;;;;;1.50;1.40;;;;;;;9.61;100.00;100512.25;4915253;29;20544;-53
2023/03/20 01:54:20;;;;;;;1.17;1.07;;;;;;;9.55;100.00;100509.72;4915109;29;20871;-52
2023/03/20 01:56:55;;;;;;;1.70;1.60;;;;;;;9.52;100.00;100520.41;4907491;29;20470;-52
2023/03/20 01:59:35;;;;;;;1.70;1.60;;;;;;;9.66;100.00;100517.47;4914468;29;20511;-52
2023/03/20 02:02:03;;;;;;;2.40;1.83;;;;;;;9.70;100.00;100521.78;4915133;29;20527;-52
2023/03/20 02:04:35;;;;;;;4.40;1.90;;;;;;;9.67;100.00;100516.56;4915032;28;20492;-52
2023/03/20 02:07:04;;;;;;;1.63;1.53;;;;;;;9.71;100.00;100524.41;4902527;28;20454;-52
2023/03/20 02:09:30;;;;;;;4.17;1.57;;;;;;;9.63;100.00;100521.06;4915123;29;20476;-52
2023/03/20 02:11:57;;;;;;;2.43;1.80;;;;;;;9.63;100.00;100521.06;4906634;29;20465;-53
2023/03/20 02:14:25;;;;;;;1.93;1.83;;;;;;;9.64;100.00;100527.25;4915091;29;20458;-53
2023/03/20 02:16:52;;;;;;;2.43;2.13;;;;;;;9.62;100.00;100531.72;4914841;29;20490;-52
2023/03/20 02:19:47;;;;;;;2.03;1.93;;;;;;;9.65;100.00;100534.28;4914723;29;20505;-52
2023/03/20 02:22:37;;;;;;;2.17;1.97;;;;;;;9.62;100.00;100535.25;4917002;28;20989;-53
2023/03/20 02:25:36;;;;;;;2.07;1.97;;;;;;;9.56;100.00;100523.84;4905173;29;20457;-53
2023/03/20 02:28:27;;;;;;;1.97;1.80;;;;;;;9.58;100.00;100528.22;4914890;29;20453;-52
2023/03/20 02:31:32;;;;;;;2.10;1.50;;;;;;;9.52;100.00;100522.19;4914967;28;20469;-53
2023/03/20 02:34:32;;;;;;;1.53;1.23;;;;;;;9.61;100.00;100530.84;4897151;29;20520;-53
2023/03/20 02:37:17;;;;;;;1.30;1.20;;;;;;;9.71;100.00;100534.16;4888700;28;20462;-53
2023/03/20 02:39:43;;;;;;;2.13;2.03;;;;;;;9.67;100.00;100529.81;4912206;29;20507;-52
2023/03/20 02:42:38;;;;;;;1.00;0.70;;;;;;;9.65;100.00;100529.00;4914705;29;20962;-52
2023/03/20 02:45:40;;;;;;;1.57;1.47;;;;;;;9.65;100.00;100535.16;4892532;29;20453;-51
2023/03/20 02:48:17;;;;;;;1.37;1.10;;;;;;;9.63;100.00;100534.34;4933024;28;20530;-52
2023/03/20 02:50:52;;;;;;;1.83;1.60;;;;;;;9.62;100.00;100532.59;4914307;29;20520;-52
2023/03/20 02:53:31;;;;;;;1.00;1.00;;;;;;;9.69;100.00;100522.69;4900122;28;20461;-52
2023/03/20 02:56:19;;;;;;;1.50;1.37;;;;;;;9.67;100.00;100522.72;4914473;29;20449;-52
2023/03/20 02:58:51;;;;;;;1.80;1.27;;;;;;;9.57;100.00;100517.63;4913956;29;21040;-52
2023/03/20 03:01:25;;;;;;;1.00;0.80;;;;;;;9.68;100.00;100513.88;4914295;29;20465;-53
2023/03/20 03:04:28;;;;;;;1.40;1.30;;;;;;;9.65;100.00;100513.06;4914634;29;20511;-53
2023/03/20 03:06:57;;;;;;;0.80;0.80;;;;;;;9.73;100.00;100516.41;4927141;28;20896;-53
2023/03/20 03:09:30;;;;;;;1.80;1.70;;;;;;;9.73;100.00;100511.09;4914084;28;20541;-53
2023/03/20 03:12:04;;;;;;;1.37;0.90;;;;;;;9.78;100.00;100504.81;4909090;29;20467;-53
2023/03/20 03:14:42;;;;;;;1.30;1.20;;;;;;;9.80;100.00;100510.06;4905522;29;20457;-53
2023/03/20 03:17:12;;;;;;;2.20;2.10;;;;;;;9.85;100.00;100507.31;4913559;29;20449;-53
2023/03/20 03:19:42;;;;;;;1.47;1.37;;;;;;;9.91;100.00;100515.16;4903422;28;20493;-52
2023/03/20 03:22:11;;;;;;;1.80;1.70;;;;;;;9.94;100.00;100523.03;4914267;29;20453;-53
2023/03/20 03:24:43;;;;;;;3.37;1.90;;;;;;;9.95;100.00;100530.09;4914143;29;20518;-53
2023/03/20 03:27:21;;;;;;;3.43;1.30;;;;;;;9.99;100.00;100527.34;4914155;29;20457;-53
2023/03/20 03:29:58;;;;;;;3.10;2.90;;;;;;;10.04;100.00;100528.13;4913736;29;20469;-53
2023/03/20 03:32:30;;;;;;;1.47;1.47;;;;;;;10.13;100.00;100528.81;4909712;29;20516;-52
2023/03/20 03:34:59;;;;;;;2.90;2.80;;;;;;;10.16;100.00;100532.28;4912368;29;20823;-52
2023/03/20 03:37:39;;;;;;;3.60;3.30;;;;;;;10.03;100.00;100536.13;4913938;29;20454;-53
2023/03/20 03:40:14;;;;;;;2.63;1.83;;;;;;;10.16;100.00;100528.75;4911574;29;20507;-53
2023/03/20 03:43:02;;;;;;;2.57;2.37;;;;;;;10.22;100.00;100539.25;4909301;29;20444;-51
2023/03/20 03:45:36;;;;;;;2.50;2.30;;;;;;;10.25;100.00;100541.84;4913842;29;20500;-53
2023/03/20 03:48:12;;;;;;;2.07;1.87;;;;;;;10.27;100.00;100553.31;4902315;28;20479;-52
2023/03/20 03:50:47;;;;;;;2.50;2.40;;;;;;;10.17;100.00;100549.97;4913470;29;20547;-52
2023/03/20 03:53:19;;;;;;;2.87;1.47;;;;;;;10.12;100.00;100546.53;4913723;29;20496;-53
2023/03/20 03:55:50;;;;;;;2.03;1.93;;;;;;;10.12;100.00;100541.22;4902760;29;20926;-52
2023/03/20 03:58:28;;;;;;;2.00;1.13;;;;;;;10.10;100.00;100540.38;4913536;29;20909;-52
2023/03/20 04:00:57;;;;;;;2.70;2.50;;;;;;;10.12;100.00;100543.00;4912665;28;20484;-52
2023/03/20 04:03:29;;;;;;;2.03;1.43;;;;;;;10.09;100.00;100541.28;4912596;29;20457;-53
2023/03/20 04:05:58;;;;;;;3.10;1.40;;;;;;;10.14;100.00;100543.84;4906124;28;20455;-52
2023/03/20 04:08:24;;;;;;;2.97;2.77;;;;;;;10.11;100.00;100544.78;4907550;29;20453;-53
2023/03/20 04:10:51;;;;;;;2.20;2.00;;;;;;;10.17;100.00;100539.34;4903895;29;20907;-52
2023/03/20 04:13:17;;;;;;;1.97;1.87;;;;;;;9.90;100.00;100539.97;4907179;28;20834;-52
2023/03/20 04:15:44;;;;;;;1.97;1.70;;;;;;;9.98;100.00;100543.31;4912531;28;20465;-52
2023/03/20 04:18:15;;;;;;;2.03;1.87;;;;;;;10.03;100.00;100536.13;4912241;28;20457;-52
2023/03/20 04:20:43;;;;;;;2.73;1.80;;;;;;;10.01;100.00;100536.16;4912589;29;20480;-52
2023/03/20 04:23:10;;;;;;;2.53;2.33;;;;;;;9.99;100.00;100540.59;4912448;29;20457;-52
2023/03/20 04:25:36;;;;;;;2.33;2.23;;;;;;;10.12;100.00;100554.50;4905100;29;20465;-53
2023/03/20 04:28:03;;;;;;;2.40;1.87;;;;;;;10.06;100.00;100554.66;4912259;28;20453;-51
2023/03/20 04:30:30;;;;;;;2.03;1.83;;;;;;;10.07;100.00;100553.72;4914133;28;20473;-52
2023/03/20 04:32:57;;;;;;;1.60;1.50;;;;;;;10.10;100.00;100554.53;4902281;29;20532;-52
2023/03/20 04:35:23;;;;;;;1.63;1.53;;;;;;;10.10;100.00;100558.97;4915499;29;20453;-53
2023/03/20 04:37:50;;;;;;;2.53;2.37;;;;;;;10.16;100.00;100564.16;4906598;29;20461;-53
2023/03/20 04:40:16;;;;;;;1.93;1.83;;;;;;;10.10;100.00;100561.63;4914902;29;21032;-51
2023/03/20 04:42:43;;;;;;;3.27;2.97;;;;;;;9.99;100.00;100564.50;4915057;29;20519;-53
2023/03/20 04:45:09;;;;;;;5.27;2.87;;;;;;;10.07;100.00;100569.66;4914949;29;20468;-52
2023/03/20 04:47:36;;;;;;;3.00;2.60;;;;;;;10.07;100.00;100567.00;4903458;28;20461;-53
2023/03/20 04:50:02;;;;;;;3.13;2.20;;;;;;;10.08;100.00;100566.97;4914953;29;21007;-52
2023/03/20 04:52:29;;;;;;;2.90;1.77;;;;;;;10.11;100.00;100563.38;4914960;29;20480;-53
2023/03/20 04:54:55;;;;;;;2.13;2.03;;;;;;;10.17;100.00;100575.66;4915144;29;20503;-53
2023/03/20 04:57:22;;;;;;;9.60;2.67;;;;;;;10.18;100.00;100572.97;4914828;28;20531;-53
2023/03/20 04:59:48;;;;;;;2.63;2.43;;;;;;;10.14;100.00;100565.94;4878854;28;1078180;-51
2023/03/20 05:02:16;;;;;;;3.70;2.80;;;;;;;10.13;100.00;100572.19;4905922;28;20272;-51
2023/03/20 05:04:43;;;;;;;8.93;5.27;;;;;;;10.14;100.00;100571.25;4910242;29;20462;-51
2023/03/20 05:07:09;;;;;;;11.77;5.63;;;;;;;10.22;100.00;100574.66;4901103;28;20511;-51
2023/03/20 05:09:36;;;;;;;12.97;5.60;;;;;;;10.24;100.00;100561.34;4916014;29;20543;-51
2023/03/20 05:12:02;;;;;;;12.37;7.30;;;;;;;10.32;100.00;100546.13;4910935;28;20460;-51
2023/03/20 05:14:29;;;;;;;16.70;8.60;;;;;;;10.39;100.00;100551.22;4915776;28;20457;-51
2023/03/20 05:16:55;;;;;;;12.27;7.33;;;;;;;10.36;100.00;100551.31;4915576;29;20820;-51
2023/03/20 05:19:22;;;;;;;13.07;8.33;;;;;;;10.39;100.00;100556.53;4910779;29;20497;-51
2023/03/20 05:21:48;;;;;;;18.53;7.77;;;;;;;10.39;100.00;100553.03;4904396;29;20463;-52
2023/03/20 05:24:15;;;;;;;10.17;7.23;;;;;;;10.38;100.00;100553.94;4896739;28;20828;-51
2023/03/20 05:26:41;;;;;;;12.53;8.60;;;;;;;10.42;100.00;100557.41;4909453;29;20454;-52
2023/03/20 05:29:07;;;;;;;16.50;8.67;;;;;;;10.42;100.00;100566.25;4900166;28;20505;-52
2023/03/20 05:31:34;;;;;;;23.27;11.10;;;;;;;10.44;100.00;100563.56;4913650;29;20913;-52
2023/03/20 05:34:00;;;;;;;21.10;9.27;;;;;;;10.41;100.00;100574.25;4912577;29;20460;-52
2023/03/20 05:36:27;;;;;;;17.30;9.40;;;;;;;10.42;100.00;100584.00;4915597;29;20457;-52
2023/03/20 05:38:53;;;;;;;17.87;11.87;;;;;;;10.37;100.00;100573.44;4908806;29;20486;-53
2023/03/20 05:41:19;;;;;;;25.03;10.23;;;;;;;10.42;100.00;100579.53;4897954;29;20460;-53
2023/03/20 05:43:46;;;;;;;24.23;10.27;;;;;;;10.41;100.00;100585.75;4897761;28;20528;-53
2023/03/20 05:46:12;;;;;;;44.73;13.60;;;;;;;10.39;100.00;100584.91;4901234;28;20515;-53
2023/03/20 05:48:39;;;;;;;19.37;12.03;;;;;;;10.41;100.00;100577.78;4915616;28;20485;-53
2023/03/20 05:51:06;;;;;;;17.87;13.53;;;;;;;10.43;100.00;100583.06;4908524;29;20500;-53
2023/03/20 05:53:32;;;;;;;14.70;12.00;;;;;;;10.45;100.00;100586.56;4915288;28;20457;-53
2023/03/20 05:55:59;;;;;;;30.97;14.23;;;;;;;10.42;100.00;100586.66;4913690;29;20460;-53
2023/03/20 05:58:25;;;;;;;17.53;12.27;;;;;;;10.44;100.00;100587.47;4896865;29;20536;-54
2023/03/20 06:00:51;;;;;;;18.20;11.83;;;;;;;10.40;100.00;100589.31;4902661;29;20485;-53
2023/03/20 06:03:18;;;;;;;18.63;11.10;;;;;;;10.39;100.00;100603.50;4915149;28;20461;-53
2023/03/20 06:05:44;;;;;;;16.70;11.00;;;;;;;10.42;100.00;100613.22;4909500;28;20481;-53
2023/03/20 06:08:11;;;;;;;17.00;11.67;;;;;;;10.38;100.00;100610.59;4903493;28;20462;-53
2023/03/20 06:10:37;;;;;;;17.13;11.13;;;;;;;10.36;100.00;100609.78;4909544;28;20991;-53
2023/03/20 06:13:04;;;;;;;17.97;12.00;;;;;;;10.33;100.00;100609.84;4897117;29;20532;-53
2023/03/20 06:15:30;;;;;;;15.83;11.67;;;;;;;10.41;100.00;100614.09;4913792;29;20488;-51
2023/03/20 06:17:57;;;;;;;30.10;10.03;;;;;;;10.31;100.00;100609.00;4905788;29;20498;-53
2023/03/20 06:20:25;;;;;;;21.20;10.90;;;;;;;10.32;100.00;100608.09;4907386;29;20501;-53
2023/03/20 06:22:51;;;;;;;17.70;11.30;;;;;;;10.39;100.00;100606.16;4911212;29;20461;-53
2023/03/20 06:25:18;;;;;;;18.80;10.80;;;;;;;10.38;100.00;100597.31;4895352;28;20526;-53
2023/03/20 06:27:46;;;;;;;37.10;12.17;;;;;;;10.39;100.00;100615.00;4898356;29;20462;-53
2023/03/20 06:30:14;;;;;;;19.83;13.90;;;;;;;10.41;100.00;100603.47;4896545;29;20485;-53
2023/03/20 06:32:40;;;;;;;31.23;13.20;;;;;;;10.43;100.00;100601.69;4906429;28;20474;-53
2023/03/20 06:35:08;;;;;;;21.27;11.10;;;;;;;10.43;100.00;100596.38;4905774;29;20541;-52
2023/03/20 06:37:35;;;;;;;21.07;11.20;;;;;;;10.51;100.00;100594.38;4897359;29;20828;-52
2023/03/20 06:40:02;;;;;;;19.63;12.63;;;;;;;10.54;100.00;100599.63;4906461;29;20507;-53
2023/03/20 06:42:29;;;;;;;21.00;12.63;;;;;;;10.50;100.00;100595.28;4897081;29;20458;-53
2023/03/20 06:44:55;;;;;;;23.73;13.70;;;;;;;10.58;100.00;100599.53;4914677;29;20461;-53
2023/03/20 06:47:22;;;;;;;18.40;9.53;;;;;;;10.65;100.00;100600.25;4906479;29;20454;-52
2023/03/20 06:49:48;;;;;;;29.60;13.60;;;;;;;10.61;100.00;100594.13;4914380;29;20477;-53
2023/03/20 06:52:17;;;;;;;14.27;10.13;;;;;;;10.58;100.00;100602.19;4913457;29;20450;-53
2023/03/20 06:54:44;;;;;;;22.23;11.87;;;;;;;10.73;100.00;100597.41;4911703;29;20572;-53
2023/03/20 06:57:10;;;;;;;31.30;10.47;;;;;;;10.63;100.00;100599.41;4903755;29;20962;-52
2023/03/20 06:59:40;;;;;;;17.80;9.63;;;;;;;10.56;100.00;100603.16;4911949;29;20588;-52
2023/03/20 07:02:07;;;;;;;24.83;11.33;;;;;;;10.59;100.00;100603.06;4901974;28;20458;-53
2023/03/20 07:04:33;;;;;;;19.20;10.63;;;;;;;10.55;100.00;100614.66;4913284;29;20469;-53
2023/03/20 07:07:00;;;;;;;19.17;12.73;;;;;;;10.39;100.00;100620.31;4901255;28;20458;-52
2023/03/20 07:09:26;;;;;;;18.70;12.57;;;;;;;10.39;100.00;100612.34;4907902;29;20473;-52
2023/03/20 07:11:53;;;;;;;18.03;8.63;;;;;;;10.42;100.00;100618.53;4906418;28;20478;-52
2023/03/20 07:14:20;;;;;;;22.27;10.67;;;;;;;10.50;100.00;100609.47;4899153;29;20468;-52
2023/03/20 07:16:46;;;;;;;19.80;10.90;;;;;;;10.48;100.00;100611.28;4904852;29;20492;-52
2023/03/20 07:19:13;;;;;;;18.57;10.20;;;;;;;10.51;100.00;100618.31;4909084;29;20552;-52
2023/03/20 07:21:39;;;;;;;14.73;9.47;;;;;;;10.54;100.00;100618.22;4903070;29;20540;-52
2023/03/20 07:24:07;;;;;;;28.70;11.20;;;;;;;10.61;100.00;100626.03;4904669;28;20460;-52
2023/03/20 07:26:33;;;;;;;16.80;9.33;;;;;;;10.32;100.00;100625.81;4913775;29;20943;-52
2023/03/20 07:29:00;;;;;;;20.53;11.77;;;;;;;10.51;100.00;100628.94;4905863;29;20453;-52
2023/03/20 07:31:28;;;;;;;26.47;11.33;;;;;;;10.36;100.00;100633.69;4912744;29;20588;-52
2023/03/20 07:33:55;;;;;;;21.73;9.00;;;;;;;10.41;100.00;100622.06;4913812;29;20449;-52
2023/03/20 07:36:21;;;;;;;13.63;8.53;;;;;;;10.45;100.00;100634.41;4913723;28;20958;-52
2023/03/20 07:38:47;;;;;;;40.43;11.70;;;;;;;10.57;100.00;100629.69;4913689;29;21008;-52
2023/03/20 07:41:14;;;;;;;22.17;11.33;;;;;;;10.62;100.00;100632.22;4912642;28;20449;-52
2023/03/20 07:43:40;;;;;;;22.93;12.50;;;;;;;10.77;100.00;100633.66;4913953;29;20457;-53
2023/03/20 07:46:10;;;;;;;19.90;10.13;;;;;;;10.64;100.00;100636.59;4913623;28;20538;-52
2023/03/20 07:48:36;;;;;;;15.73;11.40;;;;;;;10.70;100.00;100640.91;4913542;29;20946;-52
2023/03/20 07:51:03;;;;;;;13.70;9.57;;;;;;;10.71;100.00;100639.13;4913472;28;20565;-52
2023/03/20 07:53:29;;;;;;;18.40;11.13;;;;;;;10.66;100.00;100633.88;4913867;28;20453;-52
2023/03/20 07:55:56;;;;;;;13.83;8.67;;;;;;;10.49;100.00;100630.75;4912464;28;20458;-53
2023/03/20 07:58:22;;;;;;;32.20;10.97;;;;;;;10.64;100.00;100636.59;4913640;29;20464;-52
2023/03/20 08:00:48;;;;;;;17.23;9.73;;;;;;;10.56;100.00;100633.25;4913267;28;20501;-53
2023/03/20 08:03:15;;;;;;;18.47;10.37;;;;;;;10.75;100.00;100631.03;4913170;28;20821;-52
2023/03/20 08:05:42;;;;;;;17.07;10.30;;;;;;;10.96;100.00;100635.84;4908645;28;20450;-52
2023/03/20 08:08:12;;;;;;;18.63;11.30;;;;;;;11.00;100.00;100631.31;4906750;29;20461;-53
2023/03/20 08:10:38;;;;;;;22.30;8.80;;;;;;;11.05;100.00;100631.19;4913415;29;20480;-53
2023/03/20 08:13:05;;;;;;;16.30;9.77;;;;;;;11.07;100.00;100638.22;4908371;28;20472;-52
2023/03/20 08:15:32;;;;;;;23.77;10.20;;;;;;;11.28;100.00;100640.34;4912818;28;20454;-51
2023/03/20 08:17:58;;;;;;;17.20;10.30;;;;;;;11.39;100.00;100640.06;4903370;29;20454;-53
2023/03/20 08:20:25;;;;;;;33.30;9.30;;;;;;;11.53;100.00;100640.56;4912319;28;20556;-53
2023/03/20 08:22:52;;;;;;;14.30;9.90;;;;;;;11.62;100.00;100644.75;4903410;29;20458;-53
2023/03/20 08:25:18;;;;;;;14.00;11.40;;;;;;;11.77;100.00;100657.66;4912996;29;20460;-53
2023/03/20 08:27:45;;;;;;;48.27;10.60;;;;;;;11.83;100.00;100662.00;4913265;29;20879;-53
2023/03/20 08:30:12;;;;;;;20.90;9.83;;;;;;;11.66;100.00;100661.53;4913182;29;20815;-53
2023/03/20 08:32:39;;;;;;;17.20;9.97;;;;;;;11.69;100.00;100669.44;4907555;29;20461;-53
2023/03/20 08:35:07;;;;;;;15.07;10.10;;;;;;;11.49;100.00;100672.63;4913255;29;20460;-54
2023/03/20 08:37:47;;;;;;;17.27;11.07;;;;;;;11.81;100.00;100671.81;4908671;29;20469;-53
2023/03/20 08:40:14;;;;;;;14.40;9.30;;;;;;;12.11;100.00;100670.06;4894139;29;20494;-54
2023/03/20 08:42:40;;;;;;;11.73;8.40;;;;;;;12.30;100.00;100665.06;4898166;28;20458;-55
2023/03/20 08:45:07;;;;;;;16.50;8.83;;;;;;;12.54;100.00;100658.13;4912735;29;21027;-54
2023/03/20 08:47:34;;;;;;;11.67;5.97;;;;;;;12.74;100.00;100645.91;4909377;28;21001;-54
2023/03/20 08:50:00;;;;;;;6.53;5.37;;;;;;;12.87;100.00;100646.38;4913037;29;20473;-54
2023/03/20 08:52:27;;;;;;;8.33;7.53;;;;;;;13.34;100.00;100654.66;4913077;28;20719;-52
2023/03/20 08:54:53;;;;;;;10.30;7.13;;;;;;;13.15;100.00;100656.16;4913016;29;20453;-52
2023/03/20 08:57:19;;;;;;;9.47;6.17;;;;;;;13.17;100.00;100644.53;4912769;29;20551;-52
2023/03/20 08:59:46;;;;;;;7.03;6.30;;;;;;;13.07;100.00;100648.41;4911361;29;20570;-52
2023/03/20 09:02:13;;;;;;;4.97;3.70;;;;;;;13.22;98.14;100641.72;4912642;29;20548;-52
2023/03/20 09:04:40;;;;;;;5.00;2.80;;;;;;;13.02;95.04;100647.72;4912713;29;20457;-51
2023/03/20 09:07:06;;;;;;;3.83;2.93;;;;;;;12.92;95.16;100656.94;4900396;28;20453;-52
2023/03/20 09:09:33;;;;;;;8.93;2.80;;;;;;;12.97;94.97;100647.84;4912702;29;20473;-51
2023/03/20 09:11:59;;;;;;;4.70;2.20;;;;;;;12.99;95.91;100650.47;4907672;29;20465;-52
2023/03/20 09:14:27;;;;;;;7.70;4.87;;;;;;;13.16;96.11;100657.94;4913116;28;20457;-54
2023/03/20 09:16:54;;;;;;;4.00;3.80;;;;;;;13.34;96.14;100652.00;4915408;29;20453;-54
2023/03/20 09:19:20;;;;;;;1.13;1.10;;;;;;;13.69;96.50;100660.56;4915906;29;20484;-53
2023/03/20 09:21:47;;;;;;;2.30;2.20;;;;;;;13.50;92.62;100663.03;4915791;28;20541;-52
2023/03/20 09:24:14;;;;;;;3.17;2.90;;;;;;;13.74;91.80;100658.63;4915979;29;20881;-52
2023/03/20 09:26:40;;;;;;;6.70;2.93;;;;;;;13.99;91.29;100656.81;4915657;28;20463;-52
2023/03/20 09:29:07;;;;;;;6.20;3.90;;;;;;;14.10;91.11;100659.94;4915648;28;20469;-52
2023/03/20 09:31:33;;;;;;;10.60;2.37;;;;;;;14.41;90.21;100662.34;4915503;29;20454;-53
2023/03/20 09:34:00;;;;;;;8.43;2.83;;;;;;;15.04;90.55;100662.53;4915682;29;20544;-52
2023/03/20 09:36:26;;;;;;;26.73;4.40;;;;;;;15.01;88.94;100662.69;4915354;28;20973;-52
2023/03/20 09:38:53;;;;;;;3.73;3.43;;;;;;;15.33;87.17;100650.63;4915409;29;20957;-52
2023/03/20 09:41:22;;;;;;;2.53;2.33;;;;;;;15.34;85.91;100652.34;4915156;28;20496;-52
2023/03/20 09:44:18;;;;;;;6.37;2.17;;;;;;;15.56;86.99;100655.88;4915547;29;20782;-52
2023/03/20 09:47:09;;;;;;;2.60;2.40;;;;;;;15.94;85.49;100656.91;4896392;28;20444;-52
2023/03/20 09:50:05;;;;;;;2.70;2.30;;;;;;;15.75;84.34;100655.97;4915194;29;20480;-53
2023/03/20 09:52:39;;;;;;;3.43;2.27;;;;;;;15.67;83.26;100664.38;4915308;29;20457;-52
2023/03/20 09:55:13;;;;;;;8.03;3.60;;;;;;;15.60;82.52;100660.19;4915426;29;20457;-52
2023/03/20 09:57:44;;;;;;;2.23;2.13;;;;;;;15.32;82.83;100657.78;4915082;29;20448;-52
2023/03/20 10:00:21;;;;;;;2.70;2.50;;;;;;;15.31;83.52;100661.41;4914926;29;20998;-52
2023/03/20 10:02:52;;;;;;;2.47;2.37;;;;;;;15.22;84.38;100663.63;4915192;29;20935;-53
2023/03/20 10:05:24;;;;;;;2.20;2.00;;;;;;;15.15;84.42;100659.44;4896282;28;20433;-52
2023/03/20 10:07:54;;;;;;;6.20;2.57;;;;;;;15.27;84.64;100669.66;4896542;28;20466;-53
2023/03/20 10:10:29;;;;;;;6.73;3.00;;;;;;;15.14;83.45;100661.25;4901366;28;20922;-52
2023/03/20 10:13:27;;;;;;;4.13;3.30;;;;;;;15.82;83.59;100659.25;4908187;29;20461;-52
2023/03/20 10:16:03;;;;;;;8.30;1.97;;;;;;;15.78;80.97;100660.34;4904172;29;20846;-52
2023/03/20 10:18:35;;;;;;;2.17;2.07;;;;;;;15.58;79.93;100654.00;4907501;28;20461;-52
2023/03/20 10:21:14;;;;;;;30.67;3.20;;;;;;;16.27;79.97;100653.63;4896302;29;20498;-52
2023/03/20 10:24:03;;;;;;;3.20;2.90;;;;;;;16.35;79.48;100658.66;4903008;29;20830;-52
2023/03/20 10:26:33;;;;;;;2.03;1.93;;;;;;;15.87;80.25;100652.75;4907147;29;20461;-52
2023/03/20 10:29:05;;;;;;;3.10;2.50;;;;;;;15.53;80.91;100647.97;4914512;29;20460;-52
2023/03/20 10:31:34;;;;;;;3.57;2.00;;;;;;;15.65;80.08;100647.47;4905455;29;20454;-52
2023/03/20 10:34:22;;;;;;;1.80;1.47;;;;;;;15.65;81.42;100649.28;4914917;29;20552;-53
2023/03/20 10:37:01;;;;;;;1.77;1.30;;;;;;;15.33;79.41;100642.59;4892017;29;20471;-52
2023/03/20 10:39:49;;;;;;;2.03;1.83;;;;;;;15.43;79.48;100641.25;4914545;28;20484;-53
2023/03/20 10:42:21;;;;;;;1.80;1.70;;;;;;;15.32;76.75;100635.50;4914611;29;20863;-53
2023/03/20 10:44:55;;;;;;;1.87;1.00;;;;;;;15.40;77.14;100638.72;4912614;28;20457;-53
2023/03/20 10:47:26;;;;;;;1.63;1.53;;;;;;;15.56;77.21;100642.47;4909355;29;20942;-53
2023/03/20 10:49:58;;;;;;;3.53;1.50;;;;;;;15.35;75.00;100643.38;4907369;28;20490;-53
2023/03/20 10:52:31;;;;;;;1.00;0.90;;;;;;;15.28;75.23;100639.25;4910964;28;20951;-52
2023/03/20 10:55:21;;;;;;;1.57;1.33;;;;;;;15.41;75.59;100637.78;4914508;29;20449;-53
2023/03/20 10:57:55;;;;;;;0.90;0.83;;;;;;;15.40;73.81;100644.94;4890571;28;20540;-53
2023/03/20 11:00:24;;;;;;;0.73;0.60;;;;;;;15.42;72.58;100650.25;4908867;29;20508;-52
2023/03/20 11:02:51;;;;;;;1.50;1.40;;;;;;;15.44;74.40;100650.16;4904555;29;20461;-50
2023/03/20 11:05:35;;;;;;;1.30;1.20;;;;;;;15.47;74.92;100647.34;4914138;28;20548;-50
2023/03/20 11:08:12;;;;;;;10.40;2.47;;;;;;;15.59;72.98;100650.41;4898031;29;20454;-50
2023/03/20 11:10:40;;;;;;;3.27;1.53;;;;;;;15.90;72.87;100647.28;4914241;29;20513;-50
2023/03/20 11:13:26;;;;;;;1.17;0.90;;;;;;;15.86;72.22;100647.47;4909531;29;20472;-51
2023/03/20 11:15:54;;;;;;;2.33;1.73;;;;;;;15.77;72.37;100650.56;4894056;28;20453;-50
2023/03/20 11:18:24;;;;;;;0.80;0.73;;;;;;;15.74;72.51;100642.63;4914199;29;20462;-50
2023/03/20 11:20:56;;;;;;;1.47;0.90;;;;;;;15.97;73.56;100640.69;4914510;28;20500;-50
2023/03/20 11:23:26;;;;;;;0.80;0.80;;;;;;;15.87;71.53;100630.44;4913734;29;20454;-50
2023/03/20 11:25:58;;;;;;;1.20;1.10;;;;;;;16.02;69.91;100642.28;4914294;29;20509;-51
2023/03/20 11:28:35;;;;;;;1.93;1.73;;;;;;;16.33;68.55;100639.94;4914006;29;21058;-50
2023/03/20 11:31:01;;;;;;;1.30;1.10;;;;;;;16.19;67.37;100645.94;4914031;29;20469;-50
2023/03/20 11:33:35;;;;;;;7.10;1.40;;;;;;;16.08;68.30;100644.69;4912838;29;20432;-51